Time;durP1;ratioP1;P1;durP2;ratioP2;P2;SDS_P1;SDS_P2;PMS_P1;PMS_P2;Temp;Humidity;BMP_temperature;BMP_pressure;BME280_temperature;BME280_humidity;BME280_pressure;Samples;Min_cycle;Max_cycle;Signal;HPM_P1;HPM_P2
2022/12/09 00:02:10;;;;;;;6.88;3.95;;;;;;;;;;5022194;28;20112;-74
2022/12/09 00:04:35;;;;;;;7.95;3.60;;;;;;;;;;5033122;28;20088;-74
2022/12/09 00:07:01;;;;;;;8.55;3.78;;;;;;;;;;5023814;28;20038;-74
2022/12/09 00:09:26;;;;;;;5.65;3.13;;;;;;;;;;5026979;28;20501;-74
2022/12/09 00:11:51;;;;;;;6.32;3.08;;;;;;;;;;5026938;28;20045;-73
2022/12/09 00:14:17;;;;;;;7.25;4.00;;;;;;;;;;5029579;28;20128;-74
2022/12/09 00:16:42;;;;;;;10.15;4.22;;;;;;;;;;5021018;28;20413;-74
2022/12/09 00:19:07;;;;;;;10.93;4.82;;;;;;;;;;5029945;28;20040;-74
2022/12/09 00:21:33;;;;;;;8.68;4.05;;;;;;;;;;5019914;28;20200;-75
2022/12/09 00:24:02;;;;;;;7.45;4.80;;;;;;;;;;5028212;28;20111;-74
2022/12/09 00:26:28;;;;;;;8.00;3.80;;;;;;;;;;5022222;28;20040;-74
2022/12/09 00:28:54;;;;;;;10.48;4.68;;;;;;;;;;5033382;28;20041;-74
2022/12/09 00:31:24;;;;;;;13.63;3.90;;;;;;;;;;5037662;28;20609;-74
2022/12/09 00:33:55;;;;;;;6.95;3.72;;;;;;;;;;4995770;28;20022;-74
2022/12/09 00:36:22;;;;;;;8.05;3.67;;;;;;;;;;5033007;28;20104;-74
2022/12/09 00:38:48;;;;;;;17.65;9.27;;;;;;;;;;5021083;28;20040;-74
2022/12/09 00:41:14;;;;;;;6.43;3.45;;;;;;;;;;5025244;28;20037;-73
2022/12/09 00:43:40;;;;;;;6.80;3.45;;;;;;;;;;5000257;28;20052;-73
2022/12/09 00:46:06;;;;;;;13.07;4.28;;;;;;;;;;5048076;28;20405;-74
2022/12/09 00:48:33;;;;;;;14.65;6.35;;;;;;;;;;5023502;28;20045;-74
2022/12/09 00:50:59;;;;;;;19.65;7.93;;;;;;;;;;5039764;28;20038;-74
2022/12/09 00:53:24;;;;;;;15.40;5.30;;;;;;;;;;5044422;28;20025;-74
2022/12/09 00:55:50;;;;;;;7.28;5.10;;;;;;;;;;5034230;28;20090;-73
2022/12/09 00:58:15;;;;;;;4.65;3.17;;;;;;;;;;5022216;28;20037;-74
2022/12/09 01:00:41;;;;;;;5.43;3.70;;;;;;;;;;5038704;28;20029;-74
2022/12/09 01:03:09;;;;;;;9.20;3.65;;;;;;;;;;5026604;28;20042;-73
2022/12/09 01:05:34;;;;;;;4.53;2.95;;;;;;;;;;5005994;28;20117;-75
2022/12/09 01:08:00;;;;;;;6.90;4.05;;;;;;;;;;5024710;28;20493;-73
2022/12/09 01:10:25;;;;;;;15.50;3.50;;;;;;;;;;5020784;28;20121;-74
2022/12/09 01:12:50;;;;;;;13.40;5.28;;;;;;;;;;5022729;28;20038;-74
2022/12/09 01:15:16;;;;;;;16.23;7.45;;;;;;;;;;5022174;28;20536;-74
2022/12/09 01:17:41;;;;;;;16.98;7.55;;;;;;;;;;5024668;28;20040;-74
2022/12/09 01:20:08;;;;;;;14.25;5.95;;;;;;;;;;5024220;28;20045;-74
2022/12/09 01:22:34;;;;;;;6.95;4.38;;;;;;;;;;5025468;28;20057;-74
2022/12/09 01:24:59;;;;;;;7.30;4.22;;;;;;;;;;5020314;28;20037;-73
2022/12/09 01:27:25;;;;;;;8.23;3.63;;;;;;;;;;5023264;28;20045;-74
2022/12/09 01:29:50;;;;;;;8.85;5.40;;;;;;;;;;5008253;28;20481;-73
2022/12/09 01:32:16;;;;;;;7.18;3.53;;;;;;;;;;5027583;28;20120;-74
2022/12/09 01:34:41;;;;;;;7.05;3.55;;;;;;;;;;5026640;28;20045;-74
2022/12/09 01:37:06;;;;;;;6.15;4.72;;;;;;;;;;5016055;28;20022;-74
2022/12/09 01:39:32;;;;;;;8.93;3.30;;;;;;;;;;5022998;28;20037;-73
2022/12/09 01:42:01;;;;;;;7.95;3.45;;;;;;;;;;5024656;28;20045;-74
2022/12/09 01:44:27;;;;;;;8.40;2.65;;;;;;;;;;5037576;28;20033;-73
2022/12/09 01:46:57;;;;;;;8.63;4.75;;;;;;;;;;5042420;28;20480;-73
2022/12/09 01:49:26;;;;;;;11.38;3.78;;;;;;;;;;5017875;28;20513;-73
2022/12/09 01:52:13;;;;;;;7.70;4.07;;;;;;;;;;5035908;28;20038;-74
2022/12/09 01:54:40;;;;;;;21.63;4.97;;;;;;;;;;5012128;28;20470;-74
2022/12/09 01:57:06;;;;;;;8.52;4.57;;;;;;;;;;5029881;28;20393;-73
2022/12/09 01:59:31;;;;;;;8.48;4.97;;;;;;;;;;5030727;28;20034;-74
2022/12/09 02:01:59;;;;;;;9.82;4.63;;;;;;;;;;5037494;28;20041;-74
2022/12/09 02:04:28;;;;;;;9.05;5.05;;;;;;;;;;5035740;28;20481;-74
2022/12/09 02:06:56;;;;;;;9.43;4.45;;;;;;;;;;5038601;28;20034;-74
2022/12/09 02:09:21;;;;;;;8.38;3.95;;;;;;;;;;5043652;28;20041;-74
2022/12/09 02:12:01;;;;;;;13.48;5.22;;;;;;;;;;5029492;28;20039;-74
2022/12/09 02:14:50;;;;;;;15.85;5.78;;;;;;;;;;5020752;28;20045;-73
2022/12/09 02:17:31;;;;;;;9.60;4.85;;;;;;;;;;5029410;28;20125;-73
2022/12/09 02:20:32;;;;;;;8.70;4.15;;;;;;;;;;5027156;28;20069;-74
2022/12/09 02:23:39;;;;;;;8.63;4.65;;;;;;;;;;5005611;28;20042;-74
2022/12/09 02:26:13;;;;;;;11.40;3.85;;;;;;;;;;5003799;28;20053;-74
2022/12/09 02:28:39;;;;;;;;;;;;;;;;;;5022697;28;20040;-74
2022/12/09 02:31:20;;;;;;;7.57;4.55;;;;;;;;;;5029592;28;19917;-73
2022/12/09 02:34:04;;;;;;;6.97;4.20;;;;;;;;;;5027542;28;20095;-74
2022/12/09 02:36:35;;;;;;;10.98;5.35;;;;;;;;;;5022286;28;20064;-74
2022/12/09 02:39:01;;;;;;;10.52;5.38;;;;;;;;;;5039855;28;20099;-74
2022/12/09 02:41:28;;;;;;;17.80;6.40;;;;;;;;;;5034688;28;20487;-74
2022/12/09 02:44:00;;;;;;;14.55;7.45;;;;;;;;;;5010880;28;20489;-74
2022/12/09 02:46:27;;;;;;;15.23;5.90;;;;;;;;;;5016283;28;20041;-74
2022/12/09 02:48:54;;;;;;;11.57;6.05;;;;;;;;;;5020573;28;20411;-74
2022/12/09 02:51:21;;;;;;;9.95;5.53;;;;;;;;;;5031217;28;20448;-74
2022/12/09 02:53:51;;;;;;;16.35;6.75;;;;;;;;;;5030293;28;20057;-74
2022/12/09 02:56:17;;;;;;;13.32;6.00;;;;;;;;;;5038500;28;20045;-75
2022/12/09 02:58:43;;;;;;;14.60;6.03;;;;;;;;;;5022621;28;20045;-74
2022/12/09 03:01:23;;;;;;;17.60;6.70;;;;;;;;;;5019685;28;20034;-74
2022/12/09 03:03:50;;;;;;;15.73;6.75;;;;;;;;;;5001876;28;20061;-74
2022/12/09 03:06:17;;;;;;;10.55;6.10;;;;;;;;;;5040576;28;20030;-74
2022/12/09 03:08:57;;;;;;;10.15;5.35;;;;;;;;;;5027057;28;20128;-74
2022/12/09 03:11:23;;;;;;;12.25;5.90;;;;;;;;;;5005194;28;20034;-74
2022/12/09 03:14:02;;;;;;;9.75;5.15;;;;;;;;;;5038753;28;20042;-74
2022/12/09 03:16:36;;;;;;;19.00;5.68;;;;;;;;;;5019717;28;20030;-74
2022/12/09 03:19:04;;;;;;;;;;;;;;;;;;5016382;28;20034;-73
2022/12/09 03:21:31;;;;;;;15.35;4.28;;;;;;;;;;5017835;28;19921;-74
2022/12/09 03:23:57;;;;;;;16.73;5.03;;;;;;;;;;5004591;28;20093;-74
2022/12/09 03:26:24;;;;;;;11.80;5.38;;;;;;;;;;5032051;28;20041;-73
2022/12/09 03:28:51;;;;;;;15.45;4.90;;;;;;;;;;5033674;28;20074;-74
2022/12/09 03:31:18;;;;;;;9.40;4.72;;;;;;;;;;5021870;28;20099;-73
2022/12/09 03:33:47;;;;;;;13.40;5.50;;;;;;;;;;5026819;28;20065;-74
2022/12/09 03:36:13;;;;;;;7.85;4.30;;;;;;;;;;5006736;28;20030;-73
2022/12/09 03:38:40;;;;;;;9.73;5.07;;;;;;;;;;5039485;28;20037;-75
2022/12/09 03:41:29;;;;;;;11.77;5.72;;;;;;;;;;5021009;28;20040;-73
2022/12/09 03:43:58;;;;;;;7.60;4.47;;;;;;;;;;5025150;28;20029;-73
2022/12/09 03:46:24;;;;;;;14.32;4.85;;;;;;;;;;5038038;28;20482;-73
2022/12/09 03:48:49;;;;;;;9.43;4.68;;;;;;;;;;5029955;28;20136;-73
2022/12/09 03:51:20;;;;;;;10.98;5.22;;;;;;;;;;5039643;28;20393;-74
2022/12/09 03:54:05;;;;;;;10.65;5.05;;;;;;;;;;5045584;28;20030;-74
2022/12/09 03:56:38;;;;;;;8.02;5.10;;;;;;;;;;5018555;28;20041;-74
2022/12/09 03:59:09;;;;;;;9.80;4.63;;;;;;;;;;5006843;28;20026;-74
2022/12/09 04:01:34;;;;;;;17.27;5.15;;;;;;;;;;5009561;28;20041;-74
2022/12/09 04:04:00;;;;;;;12.35;6.53;;;;;;;;;;5024049;28;20390;-75
2022/12/09 04:06:25;;;;;;;12.57;7.45;;;;;;;;;;5023049;28;20499;-74
2022/12/09 04:08:51;;;;;;;14.93;7.20;;;;;;;;;;5036653;28;20045;-74
2022/12/09 04:11:16;;;;;;;13.77;6.15;;;;;;;;;;5025379;28;20033;-74
2022/12/09 04:13:41;;;;;;;13.45;7.22;;;;;;;;;;5018511;28;20401;-74
2022/12/09 04:16:08;;;;;;;9.93;6.22;;;;;;;;;;5024299;28;20044;-74
2022/12/09 04:18:33;;;;;;;15.32;6.68;;;;;;;;;;5021040;28;20030;-74
2022/12/09 04:20:59;;;;;;;15.90;7.18;;;;;;;;;;5035870;28;20095;-74
2022/12/09 04:23:24;;;;;;;16.48;6.05;;;;;;;;;;5021184;28;20038;-74
2022/12/09 04:25:49;;;;;;;11.60;5.13;;;;;;;;;;5023477;28;20030;-74
2022/12/09 04:28:15;;;;;;;9.02;5.03;;;;;;;;;;5016463;28;20041;-74
2022/12/09 04:30:45;;;;;;;9.68;5.13;;;;;;;;;;5022462;28;20112;-75
2022/12/09 04:33:10;;;;;;;12.10;5.78;;;;;;;;;;5038945;28;20038;-74
2022/12/09 04:35:36;;;;;;;10.32;4.93;;;;;;;;;;5017509;28;20034;-74
2022/12/09 04:38:01;;;;;;;11.02;4.90;;;;;;;;;;5019710;28;20057;-74
2022/12/09 04:40:26;;;;;;;13.27;5.47;;;;;;;;;;5032166;28;20026;-74
2022/12/09 04:42:52;;;;;;;10.98;5.22;;;;;;;;;;5024473;28;20099;-74
2022/12/09 04:45:17;;;;;;;11.02;5.00;;;;;;;;;;5021255;28;20497;-74
2022/12/09 04:47:42;;;;;;;14.57;5.88;;;;;;;;;;5025321;28;20054;-74
2022/12/09 04:50:08;;;;;;;11.32;5.18;;;;;;;;;;5021985;28;20065;-74
2022/12/09 04:52:34;;;;;;;12.15;5.20;;;;;;;;;;5023915;28;20401;-74
2022/12/09 04:54:59;;;;;;;14.18;6.63;;;;;;;;;;5010409;28;20037;-74
2022/12/09 04:57:24;;;;;;;9.85;4.85;;;;;;;;;;5028677;28;20512;-74
2022/12/09 04:59:50;;;;;;;9.77;5.55;;;;;;;;;;5024379;28;20068;-74
2022/12/09 05:02:15;;;;;;;8.45;4.70;;;;;;;;;;5021913;28;20045;-74
2022/12/09 05:04:45;;;;;;;10.10;5.30;;;;;;;;;;5029474;28;20124;-74
2022/12/09 05:07:11;;;;;;;8.80;4.90;;;;;;;;;;5032349;28;20124;-74
2022/12/09 05:09:36;;;;;;;16.65;6.63;;;;;;;;;;5023279;28;20069;-74
2022/12/09 05:12:02;;;;;;;9.63;5.72;;;;;;;;;;5023725;28;20041;-74
2022/12/09 05:14:27;;;;;;;11.38;5.68;;;;;;;;;;5018365;28;20045;-74
2022/12/09 05:16:52;;;;;;;10.15;4.85;;;;;;;;;;5020453;28;20079;-74
2022/12/09 05:19:18;;;;;;;9.73;5.05;;;;;;;;;;5023295;28;20504;-74
2022/12/09 05:21:43;;;;;;;9.18;5.43;;;;;;;;;;5025907;28;20088;-74
2022/12/09 05:24:09;;;;;;;10.90;4.90;;;;;;;;;;5026057;28;20104;-74
2022/12/09 05:26:35;;;;;;;10.40;5.47;;;;;;;;;;5026753;28;20038;-74
2022/12/09 05:29:00;;;;;;;11.55;5.55;;;;;;;;;;5020242;28;20040;-74
2022/12/09 05:31:26;;;;;;;12.63;5.50;;;;;;;;;;5031486;28;20062;-74
2022/12/09 05:33:51;;;;;;;13.32;5.70;;;;;;;;;;5043065;28;20033;-74
2022/12/09 05:36:21;;;;;;;12.10;5.20;;;;;;;;;;5011131;28;20105;-74
2022/12/09 05:38:47;;;;;;;10.73;6.53;;;;;;;;;;5047333;28;20036;-74
2022/12/09 05:41:12;;;;;;;10.00;5.75;;;;;;;;;;5019845;28;20402;-74
2022/12/09 05:43:38;;;;;;;11.50;5.95;;;;;;;;;;5017211;28;20116;-74
2022/12/09 05:46:05;;;;;;;15.05;5.03;;;;;;;;;;5017205;28;20045;-74
2022/12/09 05:48:31;;;;;;;14.18;6.03;;;;;;;;;;5009074;28;20497;-74
2022/12/09 05:51:02;;;;;;;12.32;6.53;;;;;;;;;;5043457;28;20038;-74
2022/12/09 05:53:28;;;;;;;12.95;6.90;;;;;;;;;;5029320;28;20041;-74
2022/12/09 05:55:54;;;;;;;14.25;6.82;;;;;;;;;;5025679;28;20034;-74
2022/12/09 05:58:19;;;;;;;16.65;6.95;;;;;;;;;;5022957;28;20102;-74
2022/12/09 06:00:45;;;;;;;13.13;5.47;;;;;;;;;;4999742;28;20386;-75
2022/12/09 06:03:11;;;;;;;13.68;5.80;;;;;;;;;;5023698;28;20030;-74
2022/12/09 06:05:37;;;;;;;19.35;8.82;;;;;;;;;;5024581;28;20057;-74
2022/12/09 06:08:03;;;;;;;11.70;6.18;;;;;;;;;;5024001;28;20029;-74
2022/12/09 06:10:28;;;;;;;17.48;7.40;;;;;;;;;;5001114;28;20109;-74
2022/12/09 06:12:54;;;;;;;12.32;6.20;;;;;;;;;;5021920;28;20167;-74
2022/12/09 06:15:20;;;;;;;12.70;5.65;;;;;;;;;;5021114;28;20386;-74
2022/12/09 06:17:45;;;;;;;12.63;7.10;;;;;;;;;;5008079;28;20492;-74
2022/12/09 06:20:11;;;;;;;17.90;6.63;;;;;;;;;;5017976;28;20039;-74
2022/12/09 06:22:36;;;;;;;12.90;6.45;;;;;;;;;;5023313;28;20044;-74
2022/12/09 06:25:03;;;;;;;11.75;6.97;;;;;;;;;;5016869;28;20077;-74
2022/12/09 06:27:28;;;;;;;14.98;6.75;;;;;;;;;;5001113;28;20064;-74
2022/12/09 06:29:53;;;;;;;10.82;5.93;;;;;;;;;;5025964;28;20466;-76
2022/12/09 06:32:19;;;;;;;14.82;6.15;;;;;;;;;;5029148;28;20045;-75
2022/12/09 06:34:44;;;;;;;14.13;6.30;;;;;;;;;;5021511;28;20128;-76
2022/12/09 06:37:09;;;;;;;12.55;7.70;;;;;;;;;;5003708;28;20033;-74
2022/12/09 06:39:35;;;;;;;15.90;7.50;;;;;;;;;;5030305;28;20021;-74
2022/12/09 06:42:00;;;;;;;13.82;6.68;;;;;;;;;;5022551;28;20775;-74
2022/12/09 06:44:26;;;;;;;14.80;7.28;;;;;;;;;;5028323;28;20453;-74
2022/12/09 06:46:51;;;;;;;13.25;6.95;;;;;;;;;;5024994;28;20040;-74
2022/12/09 06:49:17;;;;;;;16.90;7.22;;;;;;;;;;5015076;28;20057;-75
2022/12/09 06:51:42;;;;;;;13.82;7.10;;;;;;;;;;5041444;28;20030;-75
2022/12/09 06:54:08;;;;;;;13.90;7.45;;;;;;;;;;5024800;28;20048;-74
2022/12/09 06:56:34;;;;;;;14.27;6.85;;;;;;;;;;5025279;28;20492;-74
2022/12/09 06:58:59;;;;;;;15.65;7.03;;;;;;;;;;5025172;28;20033;-74
2022/12/09 07:01:25;;;;;;;10.75;6.35;;;;;;;;;;5030201;28;20084;-74
2022/12/09 07:03:53;;;;;;;15.45;6.97;;;;;;;;;;5023548;28;20125;-75
2022/12/09 07:06:30;;;;;;;15.68;7.20;;;;;;;;;;5028081;28;20034;-74
2022/12/09 07:09:00;;;;;;;16.70;7.20;;;;;;;;;;5026888;28;20034;-74
2022/12/09 07:11:26;;;;;;;12.98;7.00;;;;;;;;;;5025289;28;20025;-74
2022/12/09 07:13:52;;;;;;;15.57;7.63;;;;;;;;;;5031996;28;20032;-74
2022/12/09 07:16:17;;;;;;;12.23;7.43;;;;;;;;;;5031987;28;20041;-75
2022/12/09 07:18:43;;;;;;;11.75;7.35;;;;;;;;;;5026894;28;20072;-74
2022/12/09 07:21:10;;;;;;;15.43;7.93;;;;;;;;;;5037370;28;20581;-74
2022/12/09 07:23:36;;;;;;;20.38;7.72;;;;;;;;;;5020991;28;20084;-74
2022/12/09 07:26:01;;;;;;;18.08;8.52;;;;;;;;;;5023883;28;20030;-74
2022/12/09 07:28:27;;;;;;;16.80;7.28;;;;;;;;;;4889609;28;21061;-74
2022/12/09 07:30:53;;;;;;;17.50;8.35;;;;;;;;;;4956984;28;20042;-74
2022/12/09 07:33:18;;;;;;;15.20;8.15;;;;;;;;;;5029305;28;20049;-74
2022/12/09 07:35:44;;;;;;;12.05;7.90;;;;;;;;;;5029192;28;20121;-76
2022/12/09 07:38:09;;;;;;;14.80;7.80;;;;;;;;;;5032785;28;20042;-74
2022/12/09 07:40:35;;;;;;;20.92;9.48;;;;;;;;;;5023459;28;20385;-75
2022/12/09 07:43:00;;;;;;;18.25;8.63;;;;;;;;;;5024836;28;20075;-75
2022/12/09 07:45:25;;;;;;;17.52;8.55;;;;;;;;;;5031603;28;20041;-74
2022/12/09 07:47:51;;;;;;;14.75;7.88;;;;;;;;;;5023720;28;20065;-74
2022/12/09 07:50:16;;;;;;;16.83;8.10;;;;;;;;;;4969413;28;20420;-73
2022/12/09 07:52:41;;;;;;;19.70;7.60;;;;;;;;;;5027061;28;20041;-73
2022/12/09 07:55:07;;;;;;;15.00;8.10;;;;;;;;;;5029143;28;20119;-73
2022/12/09 07:57:35;;;;;;;13.13;7.97;;;;;;;;;;5033851;28;20080;-73
2022/12/09 08:00:00;;;;;;;12.10;7.65;;;;;;;;;;5025882;28;20477;-74
2022/12/09 08:02:26;;;;;;;14.02;8.02;;;;;;;;;;4967118;28;20045;-73
2022/12/09 08:04:51;;;;;;;14.40;7.13;;;;;;;;;;5020292;28;20474;-73
2022/12/09 08:07:16;;;;;;;11.52;7.80;;;;;;;;;;5022439;28;20048;-74
2022/12/09 08:09:42;;;;;;;11.55;7.70;;;;;;;;;;5026830;28;20060;-74
2022/12/09 08:12:10;;;;;;;15.32;7.82;;;;;;;;;;5025120;28;20045;-73
2022/12/09 08:14:35;;;;;;;17.42;7.95;;;;;;;;;;5025840;28;20500;-73
2022/12/09 08:17:00;;;;;;;12.95;7.28;;;;;;;;;;5020906;28;20030;-74
2022/12/09 08:19:26;;;;;;;14.32;7.43;;;;;;;;;;5018992;28;21321;-75
2022/12/09 08:21:52;;;;;;;14.32;8.05;;;;;;;;;;5015439;28;20030;-74
2022/12/09 08:24:17;;;;;;;11.90;7.32;;;;;;;;;;5018036;28;20029;-75
2022/12/09 08:26:42;;;;;;;22.17;7.60;;;;;;;;;;5018825;28;20030;-73
2022/12/09 08:29:10;;;;;;;15.45;8.25;;;;;;;;;;5027072;28;20041;-74
2022/12/09 08:31:35;;;;;;;15.38;7.40;;;;;;;;;;5026049;28;20026;-74
2022/12/09 08:34:04;;;;;;;13.57;7.65;;;;;;;;;;4998072;28;20045;-74
2022/12/09 08:36:30;;;;;;;21.85;8.23;;;;;;;;;;5017420;28;20056;-73
2022/12/09 08:38:59;;;;;;;15.73;7.85;;;;;;;;;;4873324;28;20057;-74
2022/12/09 08:41:36;;;;;;;13.27;7.95;;;;;;;;;;5019065;28;20030;-74
2022/12/09 08:44:15;;;;;;;12.88;7.82;;;;;;;;;;4992888;28;20496;-73
2022/12/09 08:46:46;;;;;;;14.05;7.82;;;;;;;;;;5005016;28;20036;-73
2022/12/09 08:49:16;;;;;;;11.82;7.43;;;;;;;;;;4989997;28;20072;-76
2022/12/09 08:51:43;;;;;;;14.32;7.75;;;;;;;;;;4991884;28;20104;-74
2022/12/09 08:54:08;;;;;;;16.63;8.52;;;;;;;;;;5007344;28;20564;-74
2022/12/09 08:56:34;;;;;;;15.43;7.97;;;;;;;;;;5017109;28;20044;-75
2022/12/09 08:58:59;;;;;;;13.95;7.47;;;;;;;;;;5008664;28;20030;-74
2022/12/09 09:01:35;;;;;;;15.25;7.82;;;;;;;;;;5014513;28;20112;-74
2022/12/09 09:04:06;;;;;;;9.98;6.30;;;;;;;;;;5040976;28;20038;-76
2022/12/09 09:06:31;;;;;;;12.23;7.25;;;;;;;;;;4988655;28;20049;-74
2022/12/09 09:08:57;;;;;;;14.23;7.68;;;;;;;;;;5013773;28;20037;-73
2022/12/09 09:11:23;;;;;;;12.10;7.78;;;;;;;;;;5005392;28;20033;-74
2022/12/09 09:13:52;;;;;;;15.88;7.75;;;;;;;;;;5024478;28;20076;-74
2022/12/09 09:16:24;;;;;;;24.50;10.45;;;;;;;;;;5007068;28;20045;-74
2022/12/09 09:18:50;;;;;;;16.88;9.50;;;;;;;;;;4981903;28;20029;-74
2022/12/09 09:21:18;;;;;;;16.50;8.88;;;;;;;;;;5019343;28;20057;-74
2022/12/09 09:23:44;;;;;;;15.40;7.97;;;;;;;;;;5004114;28;20108;-73
2022/12/09 09:26:11;;;;;;;17.38;8.68;;;;;;;;;;5013642;28;20121;-74
2022/12/09 09:28:36;;;;;;;17.73;8.40;;;;;;;;;;5013040;28;20103;-75
2022/12/09 09:31:03;;;;;;;13.18;7.40;;;;;;;;;;5018941;28;20029;-74
2022/12/09 09:33:29;;;;;;;17.65;8.00;;;;;;;;;;5032558;28;20071;-73
2022/12/09 09:35:56;;;;;;;17.13;7.82;;;;;;;;;;5022863;28;20088;-74
2022/12/09 09:38:21;;;;;;;12.80;7.28;;;;;;;;;;5021333;28;20079;-74
2022/12/09 09:40:46;;;;;;;10.95;7.05;;;;;;;;;;5012788;28;20030;-73
2022/12/09 09:43:16;;;;;;;10.20;6.07;;;;;;;;;;5026853;28;20371;-74
2022/12/09 09:45:42;;;;;;;10.95;6.65;;;;;;;;;;4998000;28;20032;-77
2022/12/09 09:48:12;;;;;;;10.07;6.22;;;;;;;;;;5016474;28;20049;-74
2022/12/09 09:50:42;;;;;;;12.07;6.30;;;;;;;;;;5002028;28;20046;-73
2022/12/09 09:53:16;;;;;;;12.23;6.07;;;;;;;;;;5015037;28;20025;-73
2022/12/09 09:55:46;;;;;;;18.02;7.20;;;;;;;;;;5032015;28;20029;-73
2022/12/09 09:58:50;;;;;;;12.20;6.95;;;;;;;;;;5039124;28;20112;-73
2022/12/09 10:01:17;;;;;;;10.02;6.53;;;;;;;;;;5008689;28;20041;-73
2022/12/09 10:04:07;;;;;;;11.88;6.90;;;;;;;;;;4999678;28;20113;-73
2022/12/09 10:06:44;;;;;;;13.70;7.00;;;;;;;;;;5022593;28;20402;-73
2022/12/09 10:09:22;;;;;;;9.20;6.18;;;;;;;;;;5014789;28;20030;-73
2022/12/09 10:11:57;;;;;;;14.95;6.57;;;;;;;;;;4999904;28;20508;-73
2022/12/09 10:14:47;;;;;;;10.75;5.68;;;;;;;;;;5036690;28;20503;-74
2022/12/09 10:17:22;;;;;;;15.23;6.45;;;;;;;;;;5018133;28;20048;-74
2022/12/09 10:19:50;;;;;;;10.68;6.88;;;;;;;;;;5030221;28;20095;-74
2022/12/09 10:22:28;;;;;;;11.63;6.75;;;;;;;;;;5024494;28;20131;-74
2022/12/09 10:24:56;;;;;;;8.75;6.13;;;;;;;;;;5009992;28;20053;-74
2022/12/09 10:27:30;;;;;;;11.70;5.95;;;;;;;;;;5013999;28;20214;-74
2022/12/09 10:29:57;;;;;;;;;;;;;;;;;;5035986;28;20029;-74
2022/12/09 10:32:28;;;;;;;9.82;5.85;;;;;;;;;;5028735;28;20372;-74
2022/12/09 10:34:53;;;;;;;10.60;6.35;;;;;;;;;;5010609;28;20030;-75
2022/12/09 10:37:25;;;;;;;14.57;6.32;;;;;;;;;;5010203;28;20037;-74
2022/12/09 10:40:08;;;;;;;10.38;6.53;;;;;;;;;;5019974;28;20503;-75
2022/12/09 10:45:26;;;;;;;11.80;5.80;;;;;;;;;;5025371;28;20096;-74
2022/12/09 10:47:51;;;;;;;10.25;5.75;;;;;;;;;;5026337;28;20049;-74
2022/12/09 10:50:34;;;;;;;12.02;6.13;;;;;;;;;;5026619;28;20049;-74
2022/12/09 10:53:06;;;;;;;9.88;5.57;;;;;;;;;;5028485;28;20040;-74
2022/12/09 10:55:38;;;;;;;8.40;5.20;;;;;;;;;;5024892;28;20477;-74
2022/12/09 10:58:24;;;;;;;10.05;5.40;;;;;;;;;;5035596;28;20036;-74
2022/12/09 11:00:59;;;;;;;7.85;5.32;;;;;;;;;;5020564;28;20049;-75
2022/12/09 11:03:31;;;;;;;9.93;4.85;;;;;;;;;;4981453;28;20044;-74
2022/12/09 11:06:00;;;;;;;9.20;5.65;;;;;;;;;;5003682;28;20037;-74
2022/12/09 11:08:26;;;;;;;11.25;5.18;;;;;;;;;;4987109;28;20045;-76
2022/12/09 11:10:51;;;;;;;11.85;4.90;;;;;;;;;;5029231;28;20037;-74
2022/12/09 11:13:18;;;;;;;9.93;4.75;;;;;;;;;;5027064;28;21065;-75
2022/12/09 11:15:49;;;;;;;10.45;5.05;;;;;;;;;;5018173;28;20060;-74
2022/12/09 11:18:29;;;;;;;12.43;5.18;;;;;;;;;;5007379;28;20436;-74
2022/12/09 11:20:59;;;;;;;6.75;4.18;;;;;;;;;;5022643;28;20105;-74
2022/12/09 11:23:26;;;;;;;10.68;4.60;;;;;;;;;;5012666;28;20045;-75
2022/12/09 11:26:09;;;;;;;10.05;4.88;;;;;;;;;;4996139;28;20041;-74
2022/12/09 11:28:38;;;;;;;9.50;4.75;;;;;;;;;;5034788;28;20049;-74
2022/12/09 11:31:13;;;;;;;8.70;4.53;;;;;;;;;;5011688;28;20038;-74
2022/12/09 11:33:49;;;;;;;;;;;;;;;;;;5039362;28;20037;-75
2022/12/09 11:36:22;;;;;;;7.97;4.05;;;;;;;;;;5001599;28;19913;-75
2022/12/09 11:38:48;;;;;;;8.23;3.63;;;;;;;;;;5011856;28;20044;-74
2022/12/09 11:44:13;;;;;;;6.93;4.05;;;;;;;;;;5023011;28;20116;-74
2022/12/09 11:46:39;;;;;;;11.10;3.83;;;;;;;;;;5003434;28;20083;-75
2022/12/09 11:49:15;;;;;;;10.38;4.15;;;;;;;;;;5018408;28;20053;-74
2022/12/09 11:51:45;;;;;;;8.88;3.67;;;;;;;;;;5005808;28;20168;-75
2022/12/09 11:54:17;;;;;;;11.75;3.72;;;;;;;;;;4997117;28;20268;-74
2022/12/09 11:56:42;;;;;;;13.75;4.53;;;;;;;;;;4996101;28;20477;-75
2022/12/09 11:59:11;;;;;;;16.70;4.22;;;;;;;;;;5026987;28;20045;-74
2022/12/09 12:01:57;;;;;;;20.10;3.83;;;;;;;;;;5031218;28;20371;-74
2022/12/09 12:04:32;;;;;;;20.70;4.22;;;;;;;;;;5027518;28;20038;-74
2022/12/09 12:07:09;;;;;;;6.72;3.03;;;;;;;;;;5034374;28;20032;-76
2022/12/09 12:09:39;;;;;;;6.43;3.20;;;;;;;;;;5001739;28;20044;-75
2022/12/09 12:12:08;;;;;;;7.72;3.28;;;;;;;;;;5039859;28;20040;-74
2022/12/09 12:14:35;;;;;;;7.63;2.97;;;;;;;;;;5014398;28;20045;-74
2022/12/09 12:17:07;;;;;;;10.75;3.80;;;;;;;;;;5035133;28;20049;-76
2022/12/09 12:19:35;;;;;;;10.18;3.63;;;;;;;;;;5040500;28;20033;-74
2022/12/09 12:22:39;;;;;;;14.00;3.67;;;;;;;;;;5040023;28;20060;-75
2022/12/09 12:25:22;;;;;;;8.17;2.67;;;;;;;;;;5015966;28;20058;-74
2022/12/09 12:27:57;;;;;;;8.25;2.85;;;;;;;;;;5022019;28;20048;-74
2022/12/09 12:30:25;;;;;;;8.75;2.65;;;;;;;;;;5014514;28;20088;-75
2022/12/09 12:33:09;;;;;;;9.02;2.63;;;;;;;;;;5041690;28;20037;-75
2022/12/09 12:35:53;;;;;;;9.88;2.80;;;;;;;;;;5005418;28;20037;-74
2022/12/09 12:38:33;;;;;;;10.40;2.60;;;;;;;;;;5018352;28;20497;-75
2022/12/09 12:41:14;;;;;;;4.22;2.10;;;;;;;;;;5020300;28;20320;-74
2022/12/09 12:47:01;;;;;;;3.08;1.65;;;;;;;;;;5025971;28;20056;-74
2022/12/09 12:49:39;;;;;;;7.15;2.33;;;;;;;;;;5004835;28;20104;-75
2022/12/09 12:52:07;;;;;;;5.35;1.98;;;;;;;;;;5023123;28;20129;-75
2022/12/09 12:55:13;;;;;;;8.85;2.15;;;;;;;;;;5016650;28;20045;-74
2022/12/09 12:57:44;;;;;;;6.75;1.90;;;;;;;;;;5020214;28;20034;-75
2022/12/09 13:00:12;;;;;;;4.22;1.80;;;;;;;;;;5028184;28;20061;-74
2022/12/09 13:02:43;;;;;;;10.35;1.90;;;;;;;;;;5025760;28;20038;-74
2022/12/09 13:05:11;;;;;;;5.22;2.00;;;;;;;;;;5021857;28;20037;-75
2022/12/09 13:08:18;;;;;;;6.97;1.92;;;;;;;;;;5019199;28;20041;-74
2022/12/09 13:10:49;;;;;;;7.75;2.00;;;;;;;;;;5017532;28;20049;-75
2022/12/09 13:13:24;;;;;;;6.80;2.13;;;;;;;;;;5019105;28;20037;-74
2022/12/09 13:16:07;;;;;;;3.28;1.35;;;;;;;;;;4850878;28;20055;-74
2022/12/09 13:18:35;;;;;;;4.88;2.10;;;;;;;;;;4952175;28;20105;-75
2022/12/09 13:21:02;;;;;;;9.75;2.00;;;;;;;;;;5023376;28;20103;-75
2022/12/09 13:23:37;;;;;;;5.68;1.88;;;;;;;;;;5021765;28;20038;-74
2022/12/09 13:26:11;;;;;;;5.03;1.98;;;;;;;;;;5022684;28;20049;-75
2022/12/09 13:29:03;;;;;;;6.15;2.03;;;;;;;;;;5016284;28;20038;-75
2022/12/09 13:31:30;;;;;;;8.52;1.75;;;;;;;;;;5000600;28;20096;-75
2022/12/09 13:34:20;;;;;;;12.43;2.13;;;;;;;;;;5011043;28;20037;-74
2022/12/09 13:36:47;;;;;;;10.50;1.60;;;;;;;;;;5024900;28;20379;-75
2022/12/09 13:39:38;;;;;;;8.73;2.70;;;;;;;;;;5020561;28;20064;-74
2022/12/09 13:45:19;;;;;;;6.55;2.00;;;;;;;;;;5021661;28;20187;-75
2022/12/09 13:47:45;;;;;;;6.30;1.75;;;;;;;;;;5000071;28;20077;-74
2022/12/09 13:50:27;;;;;;;3.15;1.48;;;;;;;;;;5011583;28;20131;-74
2022/12/09 13:52:58;;;;;;;6.43;1.50;;;;;;;;;;5022483;28;20033;-74
2022/12/09 13:55:51;;;;;;;5.88;1.73;;;;;;;;;;5009484;28;20501;-74
2022/12/09 13:58:35;;;;;;;6.13;1.48;;;;;;;;;;5014231;28;20088;-74
2022/12/09 14:01:04;;;;;;;8.30;1.73;;;;;;;;;;5018027;28;20049;-76
2022/12/09 14:03:32;;;;;;;9.00;2.00;;;;;;;;;;5027852;28;20041;-74
2022/12/09 14:05:59;;;;;;;8.57;1.95;;;;;;;;;;5026585;28;20038;-75
2022/12/09 14:08:33;;;;;;;10.73;3.17;;;;;;;;;;5038616;28;20129;-75
2022/12/09 14:11:38;;;;;;;12.57;4.05;;;;;;;;;;5035619;28;20587;-75
2022/12/09 14:14:22;;;;;;;;;;;;;;;;;;5012772;28;20026;-76
2022/12/09 14:16:47;;;;;;;8.55;3.00;;;;;;;;;;5023019;28;19923;-75
2022/12/09 14:19:22;;;;;;;3.80;1.50;;;;;;;;;;5002742;28;20026;-75
2022/12/09 14:22:17;;;;;;;6.82;1.95;;;;;;;;;;5012097;28;20041;-75
2022/12/09 14:24:43;;;;;;;;;;;;;;;;;;5025216;28;20037;-76
2022/12/09 14:27:14;;;;;;;11.23;3.22;;;;;;;;;;5020093;28;19917;-75
2022/12/09 14:29:49;;;;;;;34.75;12.77;;;;;;;;;;5025284;28;20033;-75
2022/12/09 14:32:23;;;;;;;45.70;12.90;;;;;;;;;;5021855;28;20049;-75
2022/12/09 14:34:58;;;;;;;;;;;;;;;;;;5028678;28;20381;-75
2022/12/09 14:37:32;;;;;;;5.53;1.88;;;;;;;;;;5022556;28;19920;-75
2022/12/09 14:40:24;;;;;;;14.52;1.85;;;;;;;;;;5027568;28;20075;-75
2022/12/09 14:43:11;;;;;;;8.43;2.97;;;;;;;;;;5011806;28;20072;-76
2022/12/09 14:45:50;;;;;;;8.55;2.45;;;;;;;;;;5019518;28;20068;-75
2022/12/09 14:48:20;;;;;;;18.13;3.60;;;;;;;;;;5019373;28;20485;-75
2022/12/09 14:50:46;;;;;;;9.40;4.18;;;;;;;;;;5004539;28;20033;-75
2022/12/09 14:53:20;;;;;;;13.13;2.40;;;;;;;;;;5015947;28;20042;-75
2022/12/09 14:55:47;;;;;;;15.45;4.53;;;;;;;;;;5000201;28;20541;-75
2022/12/09 14:58:18;;;;;;;12.02;5.30;;;;;;;;;;5023676;28;20041;-76
2022/12/09 15:00:43;;;;;;;22.70;7.90;;;;;;;;;;5023294;28;20059;-75
2022/12/09 15:03:18;;;;;;;22.27;8.35;;;;;;;;;;5021377;28;20037;-75
2022/12/09 15:06:15;;;;;;;11.57;3.45;;;;;;;;;;5013546;28;20033;-75